Time;durP1;ratioP1;P1;durP2;ratioP2;P2;SDS_P1;SDS_P2;PMS_P1;PMS_P2;Temp;Humidity;BMP_temperature;BMP_pressure;BME280_temperature;BME280_humidity;BME280_pressure;Samples;Min_cycle;Max_cycle;Signal;HPM_P1;HPM_P2
2022/09/26 00:01:56;;;;;;;;;;;;;;;15.90;66.98;100369.22;5054265;28;19925;-74
2022/09/26 00:04:24;;;;;;;;;;;;;;;15.80;67.60;100376.19;5060246;28;19955;-74
2022/09/26 00:06:51;;;;;;;;;;;;;;;15.82;67.55;100367.19;5063673;28;19928;-74
2022/09/26 00:09:19;;;;;;;;;;;;;;;15.51;68.39;100360.84;5063359;28;19931;-74
2022/09/26 00:11:45;;;;;;;;;;;;;;;14.97;71.13;100365.03;5065458;28;20538;-74
2022/09/26 00:14:13;;;;;;;;;;;;;;;15.20;70.15;100365.91;5063221;28;19924;-74
2022/09/26 00:16:39;;;;;;;;;;;;;;;15.09;70.61;100358.81;5065030;28;20364;-74
2022/09/26 00:19:06;;;;;;;;;;;;;;;14.87;71.47;100356.13;5065363;28;19978;-74
2022/09/26 00:21:32;;;;;;;;;;;;;;;14.77;72.01;100352.50;5062657;28;19924;-74
2022/09/26 00:24:00;;;;;;;;;;;;;;;14.81;71.75;100354.81;5064145;28;19924;-74
2022/09/26 00:26:28;;;;;;;;;;;;;;;14.78;71.87;100344.44;5065193;28;19931;-74
2022/09/26 00:28:55;;;;;;;;;;;;;;;14.94;71.21;100354.69;5061719;28;20339;-74
2022/09/26 00:31:22;;;;;;;;;;;;;;;15.31;70.11;100356.22;5064597;28;19967;-74
2022/09/26 00:33:48;;;;;;;;;;;;;;;15.35;70.07;100348.88;5064726;28;20342;-74
2022/09/26 00:36:15;;;;;;;;;;;;;;;15.33;70.26;100349.03;5061832;28;19978;-74
2022/09/26 00:38:41;;;;;;;;;;;;;;;15.53;69.33;100343.03;5063408;28;19974;-73
2022/09/26 00:41:08;;;;;;;;;;;;;;;15.46;69.37;100341.81;5064979;28;20442;-74
2022/09/26 00:43:37;;;;;;;;;;;;;;;15.61;69.14;100333.69;5063170;28;19924;-74
2022/09/26 00:46:05;;;;;;;;;;;;;;;15.76;68.27;100332.47;5063823;28;20299;-74
2022/09/26 00:48:34;;;;;;;;;;;;;;;15.37;69.46;100341.72;5065131;28;19974;-75
2022/09/26 00:51:00;;;;;;;;;;;;;;;15.39;69.57;100339.78;5063308;28;19924;-75
2022/09/26 00:53:30;;;;;;;;;;;;;;;15.39;69.74;100337.13;5063478;28;19924;-74
2022/09/26 00:55:59;;;;;;;;;;;;;;;15.28;70.26;100332.69;5065989;28;19978;-75
2022/09/26 00:58:28;;;;;;;;;;;;;;;15.50;69.58;100329.25;5068386;28;19924;-75
2022/09/26 01:00:56;;;;;;;;;;;;;;;15.55;69.31;100330.56;5063408;28;20475;-75
2022/09/26 01:03:23;;;;;;;;;;;;;;;15.53;69.32;100329.84;5063139;28;19932;-75
2022/09/26 01:05:49;;;;;;;;;;;;;;;15.73;68.39;100323.00;5064524;28;20425;-75
2022/09/26 01:08:17;;;;;;;;;;;;;;;15.42;69.35;100319.22;5064826;28;19925;-75
2022/09/26 01:10:44;;;;;;;;;;;;;;;15.52;69.00;100311.47;5065172;28;20380;-75
2022/09/26 01:13:10;;;;;;;;;;;;;;;15.25;69.72;100303.88;5072753;28;19924;-75
2022/09/26 01:15:37;;;;;;;;;;;;;;;15.31;70.01;100311.31;5074684;28;19924;-75
2022/09/26 01:18:06;;;;;;;;;;;;;;;15.28;70.08;100303.63;5065050;28;19951;-75
2022/09/26 01:20:38;;;;;;;;;;;;;;;15.32;70.07;100301.59;5067028;28;19924;-75
2022/09/26 01:23:16;;;;;;;;;;;;;;;15.07;70.70;100295.59;5068661;28;19970;-75
2022/09/26 01:26:00;;;;;;;;;;;;;;;14.81;71.03;100291.47;5069096;28;19990;-75
2022/09/26 01:28:43;;;;;;;;;;;;;;;14.32;72.71;100280.22;5057212;28;19928;-75
2022/09/26 01:31:14;;;;;;;;;;;;;;;14.22;73.15;100287.16;5067225;28;19974;-75
2022/09/26 01:33:45;;;;;;;;;;;;;;;14.40;72.37;100278.75;5067947;28;20372;-75
2022/09/26 01:36:18;;;;;;;;;;;;;;;14.43;71.39;100286.44;5067403;28;20323;-75
2022/09/26 01:38:50;;;;;;;;;;;;;;;14.41;70.70;100277.75;5065610;28;19928;-75
2022/09/26 01:41:25;;;;;;;;;;;;;;;14.06;71.38;100276.88;5063219;28;19925;-75
2022/09/26 01:43:56;;;;;;;;;;;;;;;13.71;72.70;100266.25;5047738;28;19928;-75
2022/09/26 01:46:29;;;;;;;;;;;;;;;13.52;74.22;100265.91;5067699;28;19947;-75
2022/09/26 01:48:57;;;;;;;;;;;;;;;13.55;73.71;100257.78;5067505;28;20394;-75
2022/09/26 01:51:26;;;;;;;;;;;;;;;13.47;72.45;100263.59;5067091;28;20238;-75
2022/09/26 01:53:55;;;;;;;;;;;;;;;13.35;73.24;100267.09;5066615;28;19978;-75
2022/09/26 01:56:23;;;;;;;;;;;;;;;13.09;74.25;100249.59;5067008;28;19978;-75
2022/09/26 01:58:51;;;;;;;;;;;;;;;12.88;74.97;100249.31;5059070;28;19925;-75
2022/09/26 02:01:18;;;;;;;;;;;;;;;12.66;77.96;100244.69;5065533;28;20285;-75
2022/09/26 02:03:48;;;;;;;;;;;;;;;12.73;76.52;100245.09;5067561;28;19928;-75
2022/09/26 02:06:16;;;;;;;;;;;;;;;12.87;76.13;100238.88;5067655;28;20277;-75
2022/09/26 02:08:45;;;;;;;;;;;;;;;12.54;77.92;100237.63;5066745;28;20272;-78
2022/09/26 02:11:14;;;;;;;;;;;;;;;12.72;77.34;100239.94;5066987;28;19928;-78
2022/09/26 02:13:44;;;;;;;;;;;;;;;12.81;76.54;100231.41;5067945;28;19963;-78
2022/09/26 02:16:11;;;;;;;;;;;;;;;12.59;77.91;100225.00;5068049;28;19928;-77
2022/09/26 02:18:40;;;;;;;;;;;;;;;12.49;78.20;100229.19;5066780;28;19925;-77
2022/09/26 02:21:11;;;;;;;;;;;;;;;12.76;77.26;100223.00;5064619;28;20346;-79
2022/09/26 02:23:37;;;;;;;;;;;;;;;12.85;76.41;100227.63;5068720;28;19931;-78
2022/09/26 02:26:04;;;;;;;;;;;;;;;12.94;75.54;100224.34;5067244;28;21380;-79
2022/09/26 02:28:30;;;;;;;;;;;;;;;13.03;75.29;100223.72;5065851;28;19928;-79
2022/09/26 02:31:00;;;;;;;;;;;;;;;13.03;75.28;100221.94;5067631;28;19931;-79
2022/09/26 02:33:27;;;;;;;;;;;;;;;13.14;74.25;100214.16;5068920;28;20764;-79
2022/09/26 02:35:56;;;;;;;;;;;;;;;13.11;73.94;100213.53;5067079;28;19978;-79
2022/09/26 02:38:25;;;;;;;;;;;;;;;13.09;72.73;100211.00;5066376;28;20332;-80
2022/09/26 02:41:07;;;;;;;;;;;;;;;13.07;72.18;100210.25;5066744;28;19924;-79
2022/09/26 02:43:52;;;;;;;;;;;;;;;13.06;72.28;100208.56;5066465;28;19932;-79
2022/09/26 02:46:28;;;;;;;;;;;;;;;13.10;72.22;100206.59;5065311;28;19924;-78
2022/09/26 02:49:03;;;;;;;;;;;;;;;13.00;72.88;100203.75;5046588;28;19924;-78
2022/09/26 02:51:38;;;;;;;;;;;;;;;12.66;72.85;100207.84;5044762;28;19925;-81
2022/09/26 02:54:14;;;;;;;;;;;;;;;12.55;74.45;100204.28;5047634;28;19982;-79
2022/09/26 02:56:44;;;;;;;;;;;;;;;12.67;73.72;100191.09;5063050;28;19989;-76
2022/09/26 02:59:16;;;;;;;;;;;;;;;12.66;73.27;100192.06;5066268;28;20024;-77
2022/09/26 03:01:47;;;;;;;;;;;;;;;12.76;72.52;100188.78;5065745;28;19924;-77
2022/09/26 03:04:18;;;;;;;;;;;;;;;12.81;71.10;100189.31;5064564;28;20023;-76
2022/09/26 03:06:46;;;;;;;;;;;;;;;12.67;70.62;100190.28;5065743;28;19931;-78
2022/09/26 03:09:17;;;;;;;;;;;;;;;12.57;71.38;100186.59;5065850;28;19924;-78
2022/09/26 03:11:44;;;;;;;;;;;;;;;12.16;73.09;100192.84;5064910;28;19936;-80
2022/09/26 03:14:11;;;;;;;;;;;;;;;12.12;73.85;100180.88;5064127;28;19925;-78
2022/09/26 03:16:39;;;;;;;;;;;;;;;12.16;73.75;100187.59;5066057;28;19924;-80
2022/09/26 03:19:07;;;;;;;;;;;;;;;12.08;73.44;100182.00;5064461;28;19925;-80
2022/09/26 03:21:34;;;;;;;;;;;;;;;12.18;72.88;100169.13;5081737;28;19925;-79
2022/09/26 03:24:00;;;;;;;;;;;;;;;12.13;73.01;100179.09;5077296;28;19925;-77
2022/09/26 03:26:29;;;;;;;;;;;;;;;11.98;72.52;100180.94;5059728;28;19924;-77
2022/09/26 03:28:56;;;;;;;;;;;;;;;11.97;72.23;100181.06;5064718;28;19982;-77
2022/09/26 03:31:24;;;;;;;;;;;;;;;11.85;72.12;100193.22;5065311;28;19928;-76
2022/09/26 03:33:50;;;;;;;;;;;;;;;12.06;71.67;100193.56;5067281;28;20342;-77
2022/09/26 03:36:16;;;;;;;;;;;;;;;12.10;71.29;100188.03;5076354;28;19925;-77
2022/09/26 03:38:43;;;;;;;;;;;;;;;12.05;71.01;100182.22;5064831;28;19932;-77
2022/09/26 03:41:10;;;;;;;;;;;;;;;11.91;70.73;100177.03;5062885;28;19974;-76
2022/09/26 03:43:42;;;;;;;;;;;;;;;11.95;70.81;100183.78;5063866;28;19924;-76
2022/09/26 03:46:10;;;;;;;;;;;;;;;11.64;72.67;100176.22;5063518;28;19924;-76
2022/09/26 03:48:36;;;;;;;;;;;;;;;11.41;73.73;100182.94;5064990;28;19928;-78
2022/09/26 03:51:02;;;;;;;;;;;;;;;11.70;72.51;100184.53;5062420;28;20485;-75
2022/09/26 03:53:30;;;;;;;;;;;;;;;11.73;71.61;100180.88;5064320;28;20384;-75
2022/09/26 03:56:02;;;;;;;;;;;;;;;11.37;72.88;100170.09;5064901;28;19993;-76
2022/09/26 03:58:28;;;;;;;;;;;;;;;11.11;76.24;100163.88;5065170;28;19932;-77
2022/09/26 04:01:01;;;;;;;;;;;;;;;11.33;76.11;100166.81;5063654;28;19994;-78
2022/09/26 04:03:28;;;;;;;;;;;;;;;11.56;74.16;100157.47;5063703;28;19924;-77
2022/09/26 04:05:54;;;;;;;;;;;;;;;11.74;72.15;100151.06;5065976;28;19928;-77
2022/09/26 04:08:20;;;;;;;;;;;;;;;11.39;73.26;100148.03;5064482;28;19967;-78
2022/09/26 04:10:46;;;;;;;;;;;;;;;11.33;73.49;100151.06;5063971;28;19974;-76
2022/09/26 04:13:13;;;;;;;;;;;;;;;11.06;73.56;100134.44;5072999;28;19924;-78
2022/09/26 04:15:39;;;;;;;;;;;;;;;10.99;74.16;100131.38;5067214;28;19924;-78
2022/09/26 04:18:07;;;;;;;;;;;;;;;10.89;74.22;100137.31;5066368;28;19924;-78
2022/09/26 04:20:33;;;;;;;;;;;;;;;10.70;76.48;100127.94;5068182;28;20106;-77
2022/09/26 04:22:59;;;;;;;;;;;;;;;10.75;76.00;100125.88;5063854;28;19928;-76
2022/09/26 04:25:25;;;;;;;;;;;;;;;11.00;75.60;100119.09;5060749;28;19928;-76
2022/09/26 04:27:52;;;;;;;;;;;;;;;10.89;75.08;100114.53;5064172;28;19977;-76
2022/09/26 04:30:18;;;;;;;;;;;;;;;10.79;76.07;100116.03;5061437;28;19959;-76
2022/09/26 04:32:45;;;;;;;;;;;;;;;11.06;74.95;100110.84;5064291;28;20272;-76
2022/09/26 04:35:12;;;;;;;;;;;;;;;11.04;74.37;100113.56;5061957;28;19951;-76
2022/09/26 04:37:40;;;;;;;;;;;;;;;11.35;73.31;100109.81;5062700;28;19954;-76
2022/09/26 04:40:08;;;;;;;;;;;;;;;11.17;74.28;100111.84;5064860;28;19928;-76
2022/09/26 04:42:35;;;;;;;;;;;;;;;11.16;74.42;100098.81;5066146;28;20027;-78
2022/09/26 04:45:02;;;;;;;;;;;;;;;11.04;75.01;100097.84;5065833;28;19924;-78
2022/09/26 04:47:28;;;;;;;;;;;;;;;11.00;75.78;100100.75;5069344;28;20327;-78
2022/09/26 04:49:54;;;;;;;;;;;;;;;10.96;75.91;100092.22;5067552;28;20057;-78
2022/09/26 04:52:23;;;;;;;;;;;;;;;11.25;75.21;100098.22;5072121;28;19932;-78
2022/09/26 04:54:49;;;;;;;;;;;;;;;11.31;74.59;100097.81;5076491;28;19978;-82
2022/09/26 04:57:16;;;;;;;;;;;;;;;11.23;73.50;100097.50;5077513;28;19924;-82
2022/09/26 04:59:42;;;;;;;;;;;;;;;11.53;72.96;100099.91;5075466;28;20009;-82
2022/09/26 05:02:08;;;;;;;;;;;;;;;11.31;74.37;100089.94;5088932;28;20407;-82
2022/09/26 05:04:35;;;;;;;;;;;;;;;11.51;74.17;100086.88;5080931;28;19929;-82
2022/09/26 05:07:01;;;;;;;;;;;;;;;11.42;75.27;100084.03;5066826;28;19970;-82
2022/09/26 05:09:28;;;;;;;;;;;;;;;11.39;75.43;100092.91;5083408;28;19932;-82
2022/09/26 05:11:55;;;;;;;;;;;;;;;11.49;74.66;100085.31;5067992;28;19932;-82
2022/09/26 05:14:21;;;;;;;;;;;;;;;11.26;75.74;100084.19;5080588;28;20334;-82
2022/09/26 05:16:47;;;;;;;;;;;;;;;11.07;77.64;100086.28;5060888;28;20366;-82
2022/09/26 05:19:13;;;;;;;;;;;;;;;11.43;77.93;100081.28;5066948;28;19931;-82
2022/09/26 05:21:41;;;;;;;;;;;;;;;11.38;78.69;100080.72;5066977;28;19932;-82
2022/09/26 05:26:54;;;;;;;;;;;;;;;10.99;81.58;100071.03;5064236;28;19947;-82
2022/09/26 05:29:20;;;;;;;;;;;;;;;11.07;81.45;100065.31;5081345;28;21636;-82
2022/09/26 05:31:47;;;;;;;;;;;;;;;11.19;80.29;100067.16;5087733;28;19924;-82
2022/09/26 05:34:14;;;;;;;;;;;;;;;11.21;80.67;100071.34;5084611;28;19944;-82
2022/09/26 05:36:41;;;;;;;;;;;;;;;11.45;79.57;100066.28;5067541;28;19931;-82
2022/09/26 05:40:55;;;;;;;;;;;;;;;11.92;77.86;100067.53;5066662;28;19929;-82
2022/09/26 05:41:54;;;;;;;;;;;;;;;12.08;76.99;100062.94;5069231;28;19925;-82
2022/09/26 05:44:21;;;;;;;;;;;;;;;12.23;75.88;100056.63;5067114;28;19974;-82
2022/09/26 05:46:47;;;;;;;;;;;;;;;11.77;77.25;100074.69;5067831;28;19933;-82
2022/09/26 05:49:13;;;;;;;;;;;;;;;11.89;77.54;100063.34;5066489;28;20380;-82
2022/09/26 05:51:40;;;;;;;;;;;;;;;11.79;78.00;100066.72;5066733;28;19960;-82
2022/09/26 05:54:06;;;;;;;;;;;;;;;11.90;77.43;100054.50;5066633;28;19983;-82
2022/09/26 05:56:36;;;;;;;;;;;;;;;11.99;77.05;100055.69;5070689;28;19925;-78
2022/09/26 05:59:03;;;;;;;;;;;;;;;11.80;77.54;100053.44;5065658;28;19931;-78
2022/09/26 06:01:30;;;;;;;;;;;;;;;12.17;76.28;100057.88;5066898;28;19936;-78
2022/09/26 06:03:57;;;;;;;;;;;;;;;12.37;75.29;100046.00;5073974;28;19939;-78
2022/09/26 06:06:23;;;;;;;;;;;;;;;12.41;75.73;100062.41;5078694;28;19928;-78
2022/09/26 06:08:49;;;;;;;;;;;;;;;11.87;77.58;100053.88;5066401;28;19985;-78
2022/09/26 06:11:16;;;;;;;;;;;;;;;11.62;78.58;100050.25;5065623;28;20293;-78
2022/09/26 06:13:44;;;;;;;;;;;;;;;11.45;80.05;100054.94;5082868;28;19927;-78
2022/09/26 06:16:13;;;;;;;;;;;;;;;11.24;80.69;100055.41;5083132;28;19931;-79
2022/09/26 06:18:40;;;;;;;;;;;;;;;11.55;79.62;100054.22;5066234;28;19925;-78
2022/09/26 06:21:08;;;;;;;;;;;;;;;11.82;78.53;100053.38;5066368;28;19924;-78
2022/09/26 06:23:34;;;;;;;;;;;;;;;11.73;79.53;100046.94;5080835;28;20402;-78
2022/09/26 06:26:02;;;;;;;;;;;;;;;11.79;79.09;100046.50;5073856;28;19931;-78
2022/09/26 06:28:29;;;;;;;;;;;;;;;11.84;78.03;100044.41;5069334;28;19936;-78
2022/09/26 06:30:55;;;;;;;;;;;;;;;11.89;78.18;100042.34;5081175;28;19924;-78
2022/09/26 06:33:24;;;;;;;;;;;;;;;11.81;79.24;100049.88;5085428;28;20517;-78
2022/09/26 06:35:59;;;;;;;;;;;;;;;12.02;78.97;100045.78;5083057;28;19996;-78
2022/09/26 06:38:25;;;;;;;;;;;;;;;11.85;78.30;100040.00;5067943;28;19998;-78
2022/09/26 06:40:52;;;;;;;;;;;;;;;12.37;78.03;100029.38;5064594;28;19932;-79
2022/09/26 06:43:18;;;;;;;;;;;;;;;12.53;76.56;100035.22;5064132;28;19925;-79
2022/09/26 06:45:45;;;;;;;;;;;;;;;12.68;76.87;100032.34;5076211;28;19924;-79
2022/09/26 06:48:11;;;;;;;;;;;;;;;12.62;75.37;100031.94;5058954;28;19929;-79
2022/09/26 06:50:39;;;;;;;;;;;;;;;12.48;75.57;100019.78;5069911;28;20343;-79
2022/09/26 06:53:05;;;;;;;;;;;;;;;12.44;77.08;100018.31;5086069;28;19935;-79
2022/09/26 06:55:32;;;;;;;;;;;;;;;12.34;75.71;100025.16;5077371;28;19928;-79
2022/09/26 06:57:58;;;;;;;;;;;;;;;12.82;75.26;100018.22;5070084;28;19978;-78
2022/09/26 07:00:25;;;;;;;;;;;;;;;12.69;75.06;100015.63;5057046;28;20510;-77
2022/09/26 07:02:52;;;;;;;;;;;;;;;12.75;75.02;100005.63;5065014;28;19975;-77
2022/09/26 07:05:19;;;;;;;;;;;;;;;13.06;73.82;100007.69;5066318;28;19974;-77
2022/09/26 07:07:47;;;;;;;;;;;;;;;13.67;71.93;100011.06;5065117;28;19978;-77
2022/09/26 07:10:14;;;;;;;;;;;;;;;13.65;71.58;100003.25;5066043;28;20373;-77
2022/09/26 07:12:42;;;;;;;;;;;;;;;13.63;71.35;100003.34;5070325;28;20417;-77
2022/09/26 07:15:10;;;;;;;;;;;;;;;14.08;70.99;100003.41;5076102;28;20057;-77
2022/09/26 07:17:36;;;;;;;;;;;;;;;13.70;70.70;100008.19;5066115;28;19978;-77
2022/09/26 07:20:02;;;;;;;;;;;;;;;13.84;70.67;100011.44;5064125;28;19924;-77
2022/09/26 07:22:29;;;;;;;;;;;;;;;13.84;72.08;100002.69;5076498;28;19928;-77
2022/09/26 07:24:57;;;;;;;;;;;;;;;13.75;70.12;100006.00;5069745;28;19974;-77
2022/09/26 07:27:24;;;;;;;;;;;;;;;13.57;70.88;100006.47;5065986;28;19974;-80
2022/09/26 07:29:50;;;;;;;;;;;;;;;13.89;71.15;100005.81;5071583;28;19931;-80
2022/09/26 07:32:16;;;;;;;;;;;;;;;13.98;69.70;100010.38;5086388;28;19977;-80
2022/09/26 07:34:42;;;;;;;;;;;;;;;14.13;69.02;100004.75;5081136;28;20302;-78
2022/09/26 07:37:09;;;;;;;;;;;;;;;14.19;68.46;99992.06;5064983;28;20043;-81
2022/09/26 07:39:35;;;;;;;;;;;;;;;13.91;67.87;99993.34;5066559;28;19924;-78
2022/09/26 07:42:03;;;;;;;;;;;;;;;13.81;68.64;99998.50;5075179;28;19928;-78
2022/09/26 07:44:29;;;;;;;;;;;;;;;13.71;69.22;99996.69;5072855;28;19956;-78
2022/09/26 07:52:23;;;;;;;;;;;;;;;13.86;66.56;99977.03;5084678;28;19931;-77
2022/09/26 07:54:50;;;;;;;;;;;;;;;14.14;65.33;99973.97;5077162;28;19924;-76
2022/09/26 07:57:18;;;;;;;;;;;;;;;14.39;65.79;99976.38;5063397;28;19963;-76
2022/09/26 07:59:44;;;;;;;;;;;;;;;14.25;65.77;99975.75;5064340;28;19924;-76
2022/09/26 08:02:20;;;;;;;;;;;;;;;14.42;65.68;99978.75;5068507;28;20557;-76
2022/09/26 08:04:46;;;;;;;;;;;;;;;14.65;66.11;99978.72;5084152;28;20324;-76
2022/09/26 08:07:13;;;;;;;;;;;;;;;14.82;64.49;99976.38;5085192;28;20337;-76
2022/09/26 08:09:40;;;;;;;;;;;;;;;14.91;64.36;99970.38;5069489;28;20564;-75
2022/09/26 08:12:06;;;;;;;;;;;;;;;14.83;64.73;99972.78;5065764;28;20338;-76
2022/09/26 08:14:34;;;;;;;;;;;;;;;15.13;64.23;99973.88;5080004;28;19924;-75
2022/09/26 08:17:00;;;;;;;;;;;;;;;14.71;63.80;99975.59;5086618;28;19924;-75
2022/09/26 08:19:26;;;;;;;;;;;;;;;14.85;62.78;99980.59;5073515;28;19986;-76
2022/09/26 08:21:52;;;;;;;;;;;;;;;14.71;64.12;99967.69;5072314;28;19932;-76
2022/09/26 08:24:19;;;;;;;;;;;;;;;14.87;64.16;99962.81;5073232;28;19925;-77
2022/09/26 08:26:45;;;;;;;;;;;;;;;14.89;64.01;99960.91;5072822;28;19974;-77
2022/09/26 08:29:11;;;;;;;;;;;;;;;15.03;62.89;99956.19;5068088;28;19935;-78
2022/09/26 08:31:39;;;;;;;;;;;;;;;14.99;63.29;99964.47;5077299;28;19924;-79
2022/09/26 08:34:05;;;;;;;;;;;;;;;15.15;61.64;99956.94;5069839;28;19928;-79
2022/09/26 08:36:34;;;;;;;;;;;;;;;15.06;61.47;99961.19;5068378;28;19974;-79
2022/09/26 08:39:01;;;;;;;;;;;;;;;15.13;61.65;99953.59;5069424;28;20521;-80
2022/09/26 08:41:37;;;;;;;;;;;;;;;14.99;61.73;99962.69;5070780;28;19947;-77
2022/09/26 08:44:10;;;;;;;;;;;;;;;15.29;61.19;99963.75;5089191;28;19931;-77
2022/09/26 08:46:50;;;;;;;;;;;;;;;15.79;60.34;99962.97;5079925;28;19924;-77
2022/09/26 08:49:24;;;;;;;;;;;;;;;15.66;59.71;99953.59;5068279;28;19990;-72
2022/09/26 08:51:52;;;;;;;;;;;;;;;15.77;60.55;99948.22;5067924;28;19954;-73
2022/09/26 08:54:20;;;;;;;;;;;;;;;15.70;59.51;99949.72;5068445;28;19977;-74
2022/09/26 08:56:48;;;;;;;;;;;;;;;15.59;60.06;99940.06;5070330;28;19949;-73
2022/09/26 08:59:19;;;;;;;;;;;;;;;15.84;58.47;99946.72;5066128;28;19974;-73
2022/09/26 09:01:50;;;;;;;;;;;;;;;15.77;59.22;99943.78;5068334;28;20374;-73
2022/09/26 09:04:20;;;;;;;;;;;;;;;16.29;58.63;99929.50;5068514;28;20445;-73
2022/09/26 09:06:47;;;;;;;;;;;;;;;16.16;58.11;99926.25;5068822;28;20269;-73
2022/09/26 09:09:15;;;;;;;;;;;;;;;16.41;57.91;99927.56;5067201;28;20341;-73
2022/09/26 09:11:49;;;;;;;;;;;;;;;16.92;56.69;99924.75;5069442;28;20578;-72
2022/09/26 09:14:22;;;;;;;;;;;;;;;16.73;59.07;99922.94;5069025;28;19929;-73
2022/09/26 09:16:56;;;;;;;;;;;;;;;16.51;56.83;99916.06;5087480;28;19924;-73
2022/09/26 09:19:27;;;;;;;;;;;;;;;16.71;57.04;99916.09;5061130;28;19924;-73
2022/09/26 09:22:03;;;;;;;;;;;;;;;16.35;57.22;99907.78;5068298;28;19924;-73
2022/09/26 09:24:40;;;;;;;;;;;;;;;17.02;56.39;99917.66;5067109;28;19977;-74
2022/09/26 09:27:15;;;;;;;;;;;;;;;16.91;56.27;99909.84;5070236;28;19970;-73
2022/09/26 09:29:55;;;;;;;;;;;;;;;16.85;56.00;99911.22;5064654;28;19924;-73
2022/09/26 09:32:30;;;;;;;;;;;;;;;16.97;56.96;99906.63;5067841;28;20374;-73
2022/09/26 09:34:56;;;;;;;;;;;;;;;17.34;54.36;99896.13;5067122;28;19925;-73
2022/09/26 09:37:25;;;;;;;;;;;;;;;17.29;54.31;99893.94;5066488;28;19940;-73
2022/09/26 09:39:52;;;;;;;;;;;;;;;17.52;53.56;99894.41;5068540;28;20372;-72
2022/09/26 09:42:22;;;;;;;;;;;;;;;17.67;54.24;99887.69;5086736;28;19924;-72
2022/09/26 09:44:52;;;;;;;;;;;;;;;17.70;52.39;99882.09;5085596;28;19928;-72
2022/09/26 09:47:19;;;;;;;;;;;;;;;17.86;53.30;99887.63;5068606;28;20388;-72
2022/09/26 09:49:48;;;;;;;;;;;;;;;18.29;51.87;99881.66;5063941;28;19932;-73
2022/09/26 09:52:22;;;;;;;;;;;;;;;17.89;50.99;99873.22;5068033;28;20392;-73
2022/09/26 09:54:58;;;;;;;;;;;;;;;18.05;53.49;99870.78;5064161;28;19929;-73
2022/09/26 09:57:40;;;;;;;;;;;;;;;18.84;49.50;99870.97;5069242;28;19924;-72
2022/09/26 10:00:14;;;;;;;;;;;;;;;19.20;48.12;99867.28;5066441;28;20187;-73
2022/09/26 10:02:45;;;;;;;;;;;;;;;18.83;48.74;99864.00;5067642;28;19969;-73
2022/09/26 10:05:21;;;;;;;;;;;;;;;19.43;48.51;99865.81;5066473;28;19931;-72
2022/09/26 10:07:48;;;;;;;;;;;;;;;19.62;46.75;99850.63;5068018;28;19924;-73
2022/09/26 10:10:18;;;;;;;;;;;;;;;19.13;45.43;99852.13;5066235;28;19929;-73
2022/09/26 10:12:45;;;;;;;;;;;;;;;19.21;46.80;99854.84;5075817;28;19925;-73
2022/09/26 10:15:18;;;;;;;;;;;;;;;19.62;46.30;99853.28;5086601;28;20319;-73
2022/09/26 10:17:56;;;;;;;;;;;;;;;19.86;44.26;99834.78;5078094;28;19928;-73
2022/09/26 10:20:40;;;;;;;;;;;;;;;19.86;44.53;99845.41;5065912;28;19925;-73
2022/09/26 10:23:11;;;;;;;;;;;;;;;19.78;45.23;99832.91;5064729;28;20420;-73
2022/09/26 10:25:38;;;;;;;;;;;;;;;20.07;45.44;99839.66;5065466;28;19936;-73
2022/09/26 10:28:04;;;;;;;;;;;;;;;20.14;45.45;99830.06;5068076;28;19955;-73
2022/09/26 10:30:32;;;;;;;;;;;;;;;19.47;46.33;99828.28;5084684;28;19940;-73
2022/09/26 10:33:00;;;;;;;;;;;;;;;19.23;48.25;99828.91;5074090;28;19924;-73
2022/09/26 10:35:28;;;;;;;;;;;;;;;18.07;49.07;99833.50;5066095;28;20399;-72
2022/09/26 10:38:00;;;;;;;;;;;;;;;17.60;50.55;99838.06;5066283;28;20376;-72
2022/09/26 10:40:46;;;;;;;;;;;;;;;17.74;49.78;99835.75;5064739;28;20007;-72
2022/09/26 10:43:28;;;;;;;;;;;;;;;18.32;51.08;99846.91;5065288;28;20444;-72
2022/09/26 10:45:56;;;;;;;;;;;;;;;18.46;49.80;99830.44;5065495;28;19931;-72
2022/09/26 10:48:26;;;;;;;;;;;;;;;18.46;48.76;99832.25;5064112;28;20351;-72
2022/09/26 10:50:59;;;;;;;;;;;;;;;19.05;48.07;99828.13;5064875;28;20295;-72
2022/09/26 10:53:31;;;;;;;;;;;;;;;19.19;47.52;99809.78;5065980;28;19925;-72
2022/09/26 10:56:01;;;;;;;;;;;;;;;19.88;46.84;99808.84;5066799;28;19924;-72
2022/09/26 10:58:28;;;;;;;;;;;;;;;19.89;44.66;99813.16;5065783;28;20334;-72
2022/09/26 11:00:56;;;;;;;;;;;;;;;19.84;45.29;99815.50;5065687;28;19928;-73
2022/09/26 11:03:24;;;;;;;;;;;;;;;20.03;44.66;99801.91;5086567;28;19924;-72
2022/09/26 11:05:57;;;;;;;;;;;;;;;20.25;44.02;99800.47;5085708;28;19931;-72
2022/09/26 11:08:24;;;;;;;;;;;;;;;19.55;44.50;99791.09;5085501;28;19924;-72
2022/09/26 11:10:53;;;;;;;;;;;;;;;19.60;45.07;99786.97;5084723;28;19924;-72
2022/09/26 11:13:20;;;;;;;;;;;;;;;19.51;44.35;99784.44;5087036;28;19924;-72
2022/09/26 11:15:53;;;;;;;;;;;;;;;19.37;45.45;99785.81;5084746;28;19924;-72
2022/09/26 11:18:24;;;;;;;;;;;;;;;19.80;45.57;99785.72;5079029;28;20506;-71
2022/09/26 11:20:52;;;;;;;;;;;;;;;19.35;45.55;99787.81;5084555;28;19929;-72
2022/09/26 11:23:29;;;;;;;;;;;;;;;19.15;46.31;99786.34;5086955;28;19928;-71
2022/09/26 11:26:00;;;;;;;;;;;;;;;19.25;47.07;99773.81;5075519;28;19925;-71
2022/09/26 11:28:30;;;;;;;;;;;;;;;18.38;48.10;99777.28;5064310;28;19931;-72
2022/09/26 11:31:00;;;;;;;;;;;;;;;18.22;46.40;99793.03;5064586;28;20611;-71
2022/09/26 11:33:27;;;;;;;;;;;;;;;18.22;46.80;99779.75;5063900;28;19971;-71
2022/09/26 11:36:01;;;;;;;;;;;;;;;18.35;44.61;99772.28;5066275;28;20372;-71
2022/09/26 11:38:37;;;;;;;;;;;;;;;18.41;45.21;99762.84;5064735;28;19931;-71
2022/09/26 11:41:08;;;;;;;;;;;;;;;18.43;44.23;99763.56;5064471;28;19924;-71
2022/09/26 11:43:43;;;;;;;;;;;;;;;18.67;44.05;99758.47;5064971;28;19931;-71
2022/09/26 11:46:20;;;;;;;;;;;;;;;19.41;42.09;99744.63;5061996;28;19924;-72
2022/09/26 11:48:54;;;;;;;;;;;;;;;20.04;40.91;99747.69;5064458;28;20323;-71
2022/09/26 11:51:33;;;;;;;;;;;;;;;20.20;38.66;99745.06;5066481;28;19950;-71
2022/09/26 11:54:17;;;;;;;;;;;;;;;19.49;39.48;99727.91;5066018;28;19970;-70
2022/09/26 11:56:50;;;;;;;;;;;;;;;19.55;39.77;99744.03;5063394;28;19932;-71
2022/09/26 11:59:24;;;;;;;;;;;;;;;18.96;39.59;99737.75;5062574;28;19960;-70
2022/09/26 12:01:54;;;;;;;;;;;;;;;18.90;39.46;99721.59;5063978;28;20433;-70
2022/09/26 12:04:37;;;;;;;;;;;;;;;19.23;40.10;99719.97;5065888;28;19925;-70
2022/09/26 12:07:08;;;;;;;;;;;;;;;19.39;38.84;99720.88;5064375;28;19967;-70
2022/09/26 12:09:44;;;;;;;;;;;;;;;19.38;39.05;99716.53;5065796;28;19974;-72
2022/09/26 12:12:15;;;;;;;;;;;;;;;18.90;39.48;99709.16;5068951;28;20472;-70
2022/09/26 12:14:51;;;;;;;;;;;;;;;18.91;41.11;99720.63;5064676;28;19937;-70
2022/09/26 12:17:22;;;;;;;;;;;;;;;18.90;40.43;99705.66;5063155;28;19925;-70
2022/09/26 12:19:54;;;;;;;;;;;;;;;19.05;40.42;99712.06;5062179;28;19968;-70
2022/09/26 12:22:30;;;;;;;;;;;;;;;18.84;40.87;99708.97;5068481;28;20383;-70
2022/09/26 12:25:11;;;;;;;;;;;;;;;18.75;40.94;99701.91;5079124;28;19925;-70
2022/09/26 12:27:43;;;;;;;;;;;;;;;18.71;40.83;99690.78;5062172;28;20442;-70
2022/09/26 12:30:11;;;;;;;;;;;;;;;18.60;41.88;99698.16;5063209;28;19950;-71
2022/09/26 12:32:46;;;;;;;;;;;;;;;19.15;41.03;99696.84;5065506;28;19973;-70
2022/09/26 12:35:33;;;;;;;;;;;;;;;19.30;39.23;99695.25;5066111;28;20324;-70
2022/09/26 12:38:12;;;;;;;;;;;;;;;19.16;39.25;99676.41;5064831;28;19925;-71
2022/09/26 12:40:43;;;;;;;;;;;;;;;19.43;37.87;99681.53;5078892;28;19963;-71
2022/09/26 12:43:30;;;;;;;;;;;;;;;19.62;36.72;99672.47;5083981;28;19924;-71
2022/09/26 12:46:05;;;;;;;;;;;;;;;19.36;37.10;99673.31;5071542;28;19958;-70
2022/09/26 12:48:37;;;;;;;;;;;;;;;19.16;37.68;99671.94;5066251;28;20350;-71
2022/09/26 12:51:15;;;;;;;;;;;;;;;19.67;35.03;99656.81;5065857;28;19925;-70
2022/09/26 12:53:55;;;;;;;;;;;;;;;19.58;35.22;99653.34;5064608;28;19978;-70
2022/09/26 12:56:26;;;;;;;;;;;;;;;19.40;35.49;99650.75;5065390;28;19969;-70
2022/09/26 12:59:00;;;;;;;;;;;;;;;19.40;37.47;99648.09;5064155;28;19925;-70
2022/09/26 13:01:48;;;;;;;;;;;;;;;19.48;35.89;99649.97;5064395;28;20303;-70